sensor_id;sensor_type;location;lat;lon;timestamp;pressure;altitude;pressure_sealevel;temperature
64904;BMP280;51401;48.882;12.598;2024-02-26T00:01:02;64169.88;;;-137.53
64904;BMP280;51401;48.882;12.598;2024-02-26T00:03:27;64167.88;;;-137.53
64904;BMP280;51401;48.882;12.598;2024-02-26T00:05:53;64169.88;;;-137.53
64904;BMP280;51401;48.882;12.598;2024-02-26T00:08:18;64171.84;;;-137.53
64904;BMP280;51401;48.882;12.598;2024-02-26T00:10:43;64173.84;;;-137.53
64904;BMP280;51401;48.882;12.598;2024-02-26T00:13:09;64171.84;;;-137.53
64904;BMP280;51401;48.882;12.598;2024-02-26T00:15:34;64167.88;;;-137.53
64904;BMP280;51401;48.882;12.598;2024-02-26T00:18:00;64169.88;;;-137.53
64904;BMP280;51401;48.882;12.598;2024-02-26T00:20:26;64171.84;;;-137.53
64904;BMP280;51401;48.882;12.598;2024-02-26T00:22:51;64169.88;;;-137.53
64904;BMP280;51401;48.882;12.598;2024-02-26T00:25:17;64169.88;;;-137.53
64904;BMP280;51401;48.882;12.598;2024-02-26T00:27:42;64171.84;;;-137.53
64904;BMP280;51401;48.882;12.598;2024-02-26T00:30:09;64173.84;;;-137.53
64904;BMP280;51401;48.882;12.598;2024-02-26T00:32:34;64171.84;;;-137.53
64904;BMP280;51401;48.882;12.598;2024-02-26T00:34:59;64171.84;;;-137.53
64904;BMP280;51401;48.882;12.598;2024-02-26T00:37:25;64171.84;;;-137.53
64904;BMP280;51401;48.882;12.598;2024-02-26T00:39:50;64171.84;;;-137.53
64904;BMP280;51401;48.882;12.598;2024-02-26T00:42:15;64173.84;;;-137.53
64904;BMP280;51401;48.882;12.598;2024-02-26T00:44:41;64169.88;;;-137.53
64904;BMP280;51401;48.882;12.598;2024-02-26T00:47:06;64171.84;;;-137.53
64904;BMP280;51401;48.882;12.598;2024-02-26T00:49:31;64171.84;;;-137.53
64904;BMP280;51401;48.882;12.598;2024-02-26T00:51:57;64171.84;;;-137.53
64904;BMP280;51401;48.882;12.598;2024-02-26T00:54:22;64171.84;;;-137.53
64904;BMP280;51401;48.882;12.598;2024-02-26T00:56:47;64173.84;;;-137.53
64904;BMP280;51401;48.882;12.598;2024-02-26T00:59:12;64173.84;;;-137.53
64904;BMP280;51401;48.882;12.598;2024-02-26T01:01:38;64173.84;;;-137.53
64904;BMP280;51401;48.882;12.598;2024-02-26T01:04:03;64169.88;;;-137.53
64904;BMP280;51401;48.882;12.598;2024-02-26T01:06:29;64171.84;;;-137.53
64904;BMP280;51401;48.882;12.598;2024-02-26T01:08:54;64171.84;;;-137.53
64904;BMP280;51401;48.882;12.598;2024-02-26T01:11:19;64175.84;;;-137.53
64904;BMP280;51401;48.882;12.598;2024-02-26T01:13:45;64175.84;;;-137.53
64904;BMP280;51401;48.882;12.598;2024-02-26T01:16:10;64173.84;;;-137.53
64904;BMP280;51401;48.882;12.598;2024-02-26T01:18:36;64173.84;;;-137.53
64904;BMP280;51401;48.882;12.598;2024-02-26T01:21:01;64175.84;;;-137.53
64904;BMP280;51401;48.882;12.598;2024-02-26T01:23:26;64173.84;;;-137.53
64904;BMP280;51401;48.882;12.598;2024-02-26T01:25:52;64171.84;;;-137.53
64904;BMP280;51401;48.882;12.598;2024-02-26T01:28:17;64173.84;;;-137.53
64904;BMP280;51401;48.882;12.598;2024-02-26T01:30:42;64167.88;;;-137.53
64904;BMP280;51401;48.882;12.598;2024-02-26T01:33:07;64173.84;;;-137.53
64904;BMP280;51401;48.882;12.598;2024-02-26T01:35:33;64171.84;;;-137.53
64904;BMP280;51401;48.882;12.598;2024-02-26T01:37:58;64175.84;;;-137.53
64904;BMP280;51401;48.882;12.598;2024-02-26T01:40:26;64173.84;;;-137.53
64904;BMP280;51401;48.882;12.598;2024-02-26T01:42:52;64171.84;;;-137.53
64904;BMP280;51401;48.882;12.598;2024-02-26T01:45:18;64175.84;;;-137.53
64904;BMP280;51401;48.882;12.598;2024-02-26T01:47:52;64171.84;;;-137.53
64904;BMP280;51401;48.882;12.598;2024-02-26T01:50:18;64173.84;;;-137.53
64904;BMP280;51401;48.882;12.598;2024-02-26T01:52:45;64175.84;;;-137.53
64904;BMP280;51401;48.882;12.598;2024-02-26T01:55:12;64175.84;;;-137.53
64904;BMP280;51401;48.882;12.598;2024-02-26T01:57:40;64173.84;;;-137.53
64904;BMP280;51401;48.882;12.598;2024-02-26T02:00:07;64175.84;;;-137.53
64904;BMP280;51401;48.882;12.598;2024-02-26T02:02:32;64175.84;;;-137.53
64904;BMP280;51401;48.882;12.598;2024-02-26T02:04:58;64173.84;;;-137.53
64904;BMP280;51401;48.882;12.598;2024-02-26T02:07:24;64173.84;;;-137.53
64904;BMP280;51401;48.882;12.598;2024-02-26T02:09:50;64171.84;;;-137.53
64904;BMP280;51401;48.882;12.598;2024-02-26T02:12:15;64171.84;;;-137.53
64904;BMP280;51401;48.882;12.598;2024-02-26T02:14:41;64175.84;;;-137.53
64904;BMP280;51401;48.882;12.598;2024-02-26T02:17:06;64175.84;;;-137.53
64904;BMP280;51401;48.882;12.598;2024-02-26T02:19:32;64171.84;;;-137.53
64904;BMP280;51401;48.882;12.598;2024-02-26T02:21:57;64171.84;;;-137.53
64904;BMP280;51401;48.882;12.598;2024-02-26T02:24:22;64173.84;;;-137.53
64904;BMP280;51401;48.882;12.598;2024-02-26T02:26:48;64175.84;;;-137.53
64904;BMP280;51401;48.882;12.598;2024-02-26T02:29:14;64175.84;;;-137.53
64904;BMP280;51401;48.882;12.598;2024-02-26T02:31:40;64175.84;;;-137.53
64904;BMP280;51401;48.882;12.598;2024-02-26T02:34:05;64173.84;;;-137.53
64904;BMP280;51401;48.882;12.598;2024-02-26T02:36:31;64173.84;;;-137.53
64904;BMP280;51401;48.882;12.598;2024-02-26T02:38:56;64173.84;;;-137.53
64904;BMP280;51401;48.882;12.598;2024-02-26T02:41:21;64175.84;;;-137.53
64904;BMP280;51401;48.882;12.598;2024-02-26T02:43:47;64175.84;;;-137.53
64904;BMP280;51401;48.882;12.598;2024-02-26T02:46:12;64173.84;;;-137.53
64904;BMP280;51401;48.882;12.598;2024-02-26T02:48:37;64175.84;;;-137.53
64904;BMP280;51401;48.882;12.598;2024-02-26T02:51:04;64171.84;;;-137.53
64904;BMP280;51401;48.882;12.598;2024-02-26T02:53:30;64171.84;;;-137.53
64904;BMP280;51401;48.882;12.598;2024-02-26T02:55:55;64175.84;;;-137.53
64904;BMP280;51401;48.882;12.598;2024-02-26T02:58:20;64171.84;;;-137.53
64904;BMP280;51401;48.882;12.598;2024-02-26T03:00:46;64171.84;;;-137.53
64904;BMP280;51401;48.882;12.598;2024-02-26T03:03:11;64175.84;;;-137.53
64904;BMP280;51401;48.882;12.598;2024-02-26T03:05:36;64173.84;;;-137.53
64904;BMP280;51401;48.882;12.598;2024-02-26T03:08:02;64171.84;;;-137.53
64904;BMP280;51401;48.882;12.598;2024-02-26T03:10:27;64173.84;;;-137.53
64904;BMP280;51401;48.882;12.598;2024-02-26T03:12:53;64171.84;;;-137.53
64904;BMP280;51401;48.882;12.598;2024-02-26T03:15:18;64171.84;;;-137.53
64904;BMP280;51401;48.882;12.598;2024-02-26T03:17:44;64171.84;;;-137.53
64904;BMP280;51401;48.882;12.598;2024-02-26T03:20:09;64173.84;;;-137.53
64904;BMP280;51401;48.882;12.598;2024-02-26T03:22:35;64171.84;;;-137.53
64904;BMP280;51401;48.882;12.598;2024-02-26T03:25:01;64175.84;;;-137.53
64904;BMP280;51401;48.882;12.598;2024-02-26T03:27:26;64171.84;;;-137.53
64904;BMP280;51401;48.882;12.598;2024-02-26T03:29:52;64171.84;;;-137.53
64904;BMP280;51401;48.882;12.598;2024-02-26T03:32:18;64175.84;;;-137.53
64904;BMP280;51401;48.882;12.598;2024-02-26T03:34:43;64173.84;;;-137.53
64904;BMP280;51401;48.882;12.598;2024-02-26T03:37:09;64175.84;;;-137.53
64904;BMP280;51401;48.882;12.598;2024-02-26T03:39:36;64175.84;;;-137.53
64904;BMP280;51401;48.882;12.598;2024-02-26T03:42:01;64175.84;;;-137.53
64904;BMP280;51401;48.882;12.598;2024-02-26T03:44:27;64175.84;;;-137.53
64904;BMP280;51401;48.882;12.598;2024-02-26T03:46:52;64175.84;;;-137.53
64904;BMP280;51401;48.882;12.598;2024-02-26T03:49:17;64175.84;;;-137.53
64904;BMP280;51401;48.882;12.598;2024-02-26T03:51:43;64177.81;;;-137.53
64904;BMP280;51401;48.882;12.598;2024-02-26T03:54:08;64173.84;;;-137.53
64904;BMP280;51401;48.882;12.598;2024-02-26T03:56:33;64173.84;;;-137.53
64904;BMP280;51401;48.882;12.598;2024-02-26T03:58:58;64173.84;;;-137.53
64904;BMP280;51401;48.882;12.598;2024-02-26T04:01:26;64177.81;;;-137.53
64904;BMP280;51401;48.882;12.598;2024-02-26T04:03:51;64175.84;;;-137.53
64904;BMP280;51401;48.882;12.598;2024-02-26T04:06:18;64171.84;;;-137.53
64904;BMP280;51401;48.882;12.598;2024-02-26T04:08:46;64171.84;;;-137.53
64904;BMP280;51401;48.882;12.598;2024-02-26T04:11:11;64171.84;;;-137.53
64904;BMP280;51401;48.882;12.598;2024-02-26T04:13:37;64173.84;;;-137.53
64904;BMP280;51401;48.882;12.598;2024-02-26T04:16:06;64173.84;;;-137.53
64904;BMP280;51401;48.882;12.598;2024-02-26T04:18:32;64173.84;;;-137.53
64904;BMP280;51401;48.882;12.598;2024-02-26T04:20:57;64175.84;;;-137.53
64904;BMP280;51401;48.882;12.598;2024-02-26T04:23:23;64177.81;;;-137.53
64904;BMP280;51401;48.882;12.598;2024-02-26T04:25:48;64175.84;;;-137.53
64904;BMP280;51401;48.882;12.598;2024-02-26T04:28:14;64173.84;;;-137.53
64904;BMP280;51401;48.882;12.598;2024-02-26T04:30:40;64173.84;;;-137.53
64904;BMP280;51401;48.882;12.598;2024-02-26T04:33:05;64179.81;;;-137.53
64904;BMP280;51401;48.882;12.598;2024-02-26T04:35:31;64175.84;;;-137.53
64904;BMP280;51401;48.882;12.598;2024-02-26T04:37:56;64175.84;;;-137.53
64904;BMP280;51401;48.882;12.598;2024-02-26T04:40:22;64173.84;;;-137.53
64904;BMP280;51401;48.882;12.598;2024-02-26T04:42:47;64171.84;;;-137.53
64904;BMP280;51401;48.882;12.598;2024-02-26T04:45:12;64175.84;;;-137.53
64904;BMP280;51401;48.882;12.598;2024-02-26T04:47:38;64175.84;;;-137.53
64904;BMP280;51401;48.882;12.598;2024-02-26T04:50:03;64175.84;;;-137.53
64904;BMP280;51401;48.882;12.598;2024-02-26T04:52:29;64175.84;;;-137.53
64904;BMP280;51401;48.882;12.598;2024-02-26T04:54:54;64175.84;;;-137.53
64904;BMP280;51401;48.882;12.598;2024-02-26T04:57:21;64175.84;;;-137.53
64904;BMP280;51401;48.882;12.598;2024-02-26T04:59:46;64173.84;;;-137.53
64904;BMP280;51401;48.882;12.598;2024-02-26T05:02:12;64171.84;;;-137.53
64904;BMP280;51401;48.882;12.598;2024-02-26T05:04:37;64175.84;;;-137.53
64904;BMP280;51401;48.882;12.598;2024-02-26T05:07:02;64175.84;;;-137.53
64904;BMP280;51401;48.882;12.598;2024-02-26T05:09:28;64171.84;;;-137.53
64904;BMP280;51401;48.882;12.598;2024-02-26T05:11:53;64177.81;;;-137.53
64904;BMP280;51401;48.882;12.598;2024-02-26T05:14:19;64175.84;;;-137.53
64904;BMP280;51401;48.882;12.598;2024-02-26T05:16:44;64171.84;;;-137.53
64904;BMP280;51401;48.882;12.598;2024-02-26T05:19:09;64177.81;;;-137.53
64904;BMP280;51401;48.882;12.598;2024-02-26T05:21:35;64175.84;;;-137.53
64904;BMP280;51401;48.882;12.598;2024-02-26T05:24:00;64175.84;;;-137.53
64904;BMP280;51401;48.882;12.598;2024-02-26T05:26:25;64173.84;;;-137.53
64904;BMP280;51401;48.882;12.598;2024-02-26T05:28:51;64173.84;;;-137.53
64904;BMP280;51401;48.882;12.598;2024-02-26T05:31:16;64175.84;;;-137.53
64904;BMP280;51401;48.882;12.598;2024-02-26T05:33:43;64175.84;;;-137.53
64904;BMP280;51401;48.882;12.598;2024-02-26T05:36:08;64173.84;;;-137.53
64904;BMP280;51401;48.882;12.598;2024-02-26T05:38:34;64175.84;;;-137.53
64904;BMP280;51401;48.882;12.598;2024-02-26T05:40:59;64173.84;;;-137.53
64904;BMP280;51401;48.882;12.598;2024-02-26T05:43:25;64173.84;;;-137.53
64904;BMP280;51401;48.882;12.598;2024-02-26T05:45:51;64179.81;;;-137.53
64904;BMP280;51401;48.882;12.598;2024-02-26T05:48:16;64175.84;;;-137.53
64904;BMP280;51401;48.882;12.598;2024-02-26T05:50:41;64179.81;;;-137.53
64904;BMP280;51401;48.882;12.598;2024-02-26T05:53:07;64175.84;;;-137.53
64904;BMP280;51401;48.882;12.598;2024-02-26T05:55:32;64179.81;;;-137.53
64904;BMP280;51401;48.882;12.598;2024-02-26T05:57:57;64173.84;;;-137.53
64904;BMP280;51401;48.882;12.598;2024-02-26T06:00:22;64177.81;;;-137.53
64904;BMP280;51401;48.882;12.598;2024-02-26T06:02:48;64175.84;;;-137.53
64904;BMP280;51401;48.882;12.598;2024-02-26T06:05:13;64179.81;;;-137.53
64904;BMP280;51401;48.882;12.598;2024-02-26T06:07:38;64175.84;;;-137.53
64904;BMP280;51401;48.882;12.598;2024-02-26T06:10:04;64175.84;;;-137.53
64904;BMP280;51401;48.882;12.598;2024-02-26T06:12:30;64173.84;;;-137.53
64904;BMP280;51401;48.882;12.598;2024-02-26T06:14:56;64169.88;;;-137.53
64904;BMP280;51401;48.882;12.598;2024-02-26T06:17:21;64171.84;;;-137.53
64904;BMP280;51401;48.882;12.598;2024-02-26T06:19:46;64177.81;;;-137.53
64904;BMP280;51401;48.882;12.598;2024-02-26T06:22:11;64169.88;;;-137.53
64904;BMP280;51401;48.882;12.598;2024-02-26T06:24:37;64175.84;;;-137.53
64904;BMP280;51401;48.882;12.598;2024-02-26T06:27:03;64175.84;;;-137.53
64904;BMP280;51401;48.882;12.598;2024-02-26T06:29:28;64171.84;;;-137.53
64904;BMP280;51401;48.882;12.598;2024-02-26T06:31:53;64173.84;;;-137.53
64904;BMP280;51401;48.882;12.598;2024-02-26T06:34:18;64173.84;;;-137.53
64904;BMP280;51401;48.882;12.598;2024-02-26T06:36:44;64171.84;;;-137.53
64904;BMP280;51401;48.882;12.598;2024-02-26T06:39:09;64173.84;;;-137.53
64904;BMP280;51401;48.882;12.598;2024-02-26T06:41:35;64175.84;;;-137.53
64904;BMP280;51401;48.882;12.598;2024-02-26T06:44:01;64173.84;;;-137.53
64904;BMP280;51401;48.882;12.598;2024-02-26T06:46:27;64171.84;;;-137.53
64904;BMP280;51401;48.882;12.598;2024-02-26T06:48:55;64173.84;;;-137.53
64904;BMP280;51401;48.882;12.598;2024-02-26T06:51:21;64171.84;;;-137.53
64904;BMP280;51401;48.882;12.598;2024-02-26T06:53:46;64171.84;;;-137.53
64904;BMP280;51401;48.882;12.598;2024-02-26T06:56:11;64171.84;;;-137.53
64904;BMP280;51401;48.882;12.598;2024-02-26T06:58:37;64167.88;;;-137.53
64904;BMP280;51401;48.882;12.598;2024-02-26T07:01:02;64167.88;;;-137.53
64904;BMP280;51401;48.882;12.598;2024-02-26T07:03:27;64171.84;;;-137.53
64904;BMP280;51401;48.882;12.598;2024-02-26T07:05:53;64169.88;;;-137.53
64904;BMP280;51401;48.882;12.598;2024-02-26T07:08:18;64167.88;;;-137.53
64904;BMP280;51401;48.882;12.598;2024-02-26T07:10:44;64167.88;;;-137.53
64904;BMP280;51401;48.882;12.598;2024-02-26T07:13:09;64167.88;;;-137.53
64904;BMP280;51401;48.882;12.598;2024-02-26T07:15:34;64167.88;;;-137.53
64904;BMP280;51401;48.882;12.598;2024-02-26T07:18:00;64165.91;;;-137.53
64904;BMP280;51401;48.882;12.598;2024-02-26T07:20:29;64167.88;;;-137.53
64904;BMP280;51401;48.882;12.598;2024-02-26T07:22:54;64163.91;;;-137.53
64904;BMP280;51401;48.882;12.598;2024-02-26T07:25:20;64165.91;;;-137.53
64904;BMP280;51401;48.882;12.598;2024-02-26T07:27:46;64163.91;;;-137.53
64904;BMP280;51401;48.882;12.598;2024-02-26T07:30:11;64163.91;;;-137.53
64904;BMP280;51401;48.882;12.598;2024-02-26T07:32:37;64159.94;;;-137.53
64904;BMP280;51401;48.882;12.598;2024-02-26T07:35:02;64161.94;;;-137.53
64904;BMP280;51401;48.882;12.598;2024-02-26T07:37:28;64157.97;;;-137.53
64904;BMP280;51401;48.882;12.598;2024-02-26T07:39:53;64161.94;;;-137.53
64904;BMP280;51401;48.882;12.598;2024-02-26T07:42:19;64157.97;;;-137.53
64904;BMP280;51401;48.882;12.598;2024-02-26T07:44:44;64159.94;;;-137.53
64904;BMP280;51401;48.882;12.598;2024-02-26T07:47:10;64157.97;;;-137.53
64904;BMP280;51401;48.882;12.598;2024-02-26T07:49:35;64155.97;;;-137.53
64904;BMP280;51401;48.882;12.598;2024-02-26T07:52:00;64159.94;;;-137.53
64904;BMP280;51401;48.882;12.598;2024-02-26T07:54:25;64161.94;;;-137.53
64904;BMP280;51401;48.882;12.598;2024-02-26T07:56:50;64157.97;;;-137.53
64904;BMP280;51401;48.882;12.598;2024-02-26T07:59:16;64159.94;;;-137.53
64904;BMP280;51401;48.882;12.598;2024-02-26T08:01:41;64161.94;;;-137.53
64904;BMP280;51401;48.882;12.598;2024-02-26T08:04:07;64157.97;;;-137.53
64904;BMP280;51401;48.882;12.598;2024-02-26T08:06:32;64159.94;;;-137.53
64904;BMP280;51401;48.882;12.598;2024-02-26T08:08:57;64161.94;;;-137.53
64904;BMP280;51401;48.882;12.598;2024-02-26T08:11:23;64159.94;;;-137.53
64904;BMP280;51401;48.882;12.598;2024-02-26T08:13:48;64159.94;;;-137.53
64904;BMP280;51401;48.882;12.598;2024-02-26T08:16:13;64154.00;;;-137.53
64904;BMP280;51401;48.882;12.598;2024-02-26T08:18:38;64155.97;;;-137.53
64904;BMP280;51401;48.882;12.598;2024-02-26T08:21:04;64155.97;;;-137.53
64904;BMP280;51401;48.882;12.598;2024-02-26T08:23:29;64155.97;;;-137.53
64904;BMP280;51401;48.882;12.598;2024-02-26T08:25:56;64155.97;;;-137.53
64904;BMP280;51401;48.882;12.598;2024-02-26T08:28:21;64152.00;;;-137.53
64904;BMP280;51401;48.882;12.598;2024-02-26T08:30:46;64154.00;;;-137.53
64904;BMP280;51401;48.882;12.598;2024-02-26T08:33:11;64152.00;;;-137.53
64904;BMP280;51401;48.882;12.598;2024-02-26T08:35:38;64152.00;;;-137.53
64904;BMP280;51401;48.882;12.598;2024-02-26T08:38:04;64150.03;;;-137.53
64904;BMP280;51401;48.882;12.598;2024-02-26T08:40:29;64154.00;;;-137.53
64904;BMP280;51401;48.882;12.598;2024-02-26T08:42:54;64150.03;;;-137.53
64904;BMP280;51401;48.882;12.598;2024-02-26T08:45:21;64152.00;;;-137.53
64904;BMP280;51401;48.882;12.598;2024-02-26T08:47:46;64155.97;;;-137.53
64904;BMP280;51401;48.882;12.598;2024-02-26T08:50:11;64154.00;;;-137.53
64904;BMP280;51401;48.882;12.598;2024-02-26T08:52:38;64152.00;;;-137.53
64904;BMP280;51401;48.882;12.598;2024-02-26T08:55:03;64155.97;;;-137.53
64904;BMP280;51401;48.882;12.598;2024-02-26T08:57:30;64155.97;;;-137.53
64904;BMP280;51401;48.882;12.598;2024-02-26T08:59:57;64155.97;;;-137.53
64904;BMP280;51401;48.882;12.598;2024-02-26T09:02:23;64159.94;;;-137.53
64904;BMP280;51401;48.882;12.598;2024-02-26T09:04:48;64155.97;;;-137.53
64904;BMP280;51401;48.882;12.598;2024-02-26T09:07:13;64155.97;;;-137.53
64904;BMP280;51401;48.882;12.598;2024-02-26T09:09:39;64155.97;;;-137.53
64904;BMP280;51401;48.882;12.598;2024-02-26T09:12:04;64159.94;;;-137.53
64904;BMP280;51401;48.882;12.598;2024-02-26T09:14:29;64157.97;;;-137.53
64904;BMP280;51401;48.882;12.598;2024-02-26T09:16:55;64157.97;;;-137.53
64904;BMP280;51401;48.882;12.598;2024-02-26T09:19:20;64157.97;;;-137.53
64904;BMP280;51401;48.882;12.598;2024-02-26T09:21:45;64154.00;;;-137.53
64904;BMP280;51401;48.882;12.598;2024-02-26T09:24:11;64155.97;;;-137.53
64904;BMP280;51401;48.882;12.598;2024-02-26T09:26:37;64159.94;;;-137.53
64904;BMP280;51401;48.882;12.598;2024-02-26T09:29:03;64155.97;;;-137.53
64904;BMP280;51401;48.882;12.598;2024-02-26T09:31:29;64152.00;;;-137.53
64904;BMP280;51401;48.882;12.598;2024-02-26T09:33:54;64152.00;;;-137.53
64904;BMP280;51401;48.882;12.598;2024-02-26T09:36:19;64150.03;;;-137.53
64904;BMP280;51401;48.882;12.598;2024-02-26T09:38:45;64154.00;;;-137.53
64904;BMP280;51401;48.882;12.598;2024-02-26T09:41:14;64155.97;;;-137.53
64904;BMP280;51401;48.882;12.598;2024-02-26T09:43:43;64152.00;;;-137.53
64904;BMP280;51401;48.882;12.598;2024-02-26T09:46:10;64148.03;;;-137.53
64904;BMP280;51401;48.882;12.598;2024-02-26T09:48:35;64148.03;;;-137.53
64904;BMP280;51401;48.882;12.598;2024-02-26T09:51:02;64148.03;;;-137.53
64904;BMP280;51401;48.882;12.598;2024-02-26T09:53:29;64146.03;;;-137.53
64904;BMP280;51401;48.882;12.598;2024-02-26T09:55:59;64148.03;;;-137.53
64904;BMP280;51401;48.882;12.598;2024-02-26T09:58:27;64146.03;;;-137.53
64904;BMP280;51401;48.882;12.598;2024-02-26T10:00:56;64146.03;;;-137.53
64904;BMP280;51401;48.882;12.598;2024-02-26T10:03:25;64148.03;;;-137.53
64904;BMP280;51401;48.882;12.598;2024-02-26T10:05:53;64146.03;;;-137.53
64904;BMP280;51401;48.882;12.598;2024-02-26T10:08:20;64148.03;;;-137.53
64904;BMP280;51401;48.882;12.598;2024-02-26T10:10:47;64150.03;;;-137.53
64904;BMP280;51401;48.882;12.598;2024-02-26T10:13:13;64146.03;;;-137.53
64904;BMP280;51401;48.882;12.598;2024-02-26T10:15:38;64148.03;;;-137.53
64904;BMP280;51401;48.882;12.598;2024-02-26T10:18:05;64144.06;;;-137.53
64904;BMP280;51401;48.882;12.598;2024-02-26T10:20:30;64142.06;;;-137.53
64904;BMP280;51401;48.882;12.598;2024-02-26T10:22:56;64144.06;;;-137.53
64904;BMP280;51401;48.882;12.598;2024-02-26T10:25:22;64148.03;;;-137.53
64904;BMP280;51401;48.882;12.598;2024-02-26T10:27:47;64146.03;;;-137.53
64904;BMP280;51401;48.882;12.598;2024-02-26T10:30:20;64150.03;;;-137.53
64904;BMP280;51401;48.882;12.598;2024-02-26T10:32:47;64150.03;;;-137.53
64904;BMP280;51401;48.882;12.598;2024-02-26T10:35:13;64144.06;;;-137.53
64904;BMP280;51401;48.882;12.598;2024-02-26T10:37:40;64148.03;;;-137.53
64904;BMP280;51401;48.882;12.598;2024-02-26T10:40:09;64150.03;;;-137.53
64904;BMP280;51401;48.882;12.598;2024-02-26T10:42:35;64150.03;;;-137.53
64904;BMP280;51401;48.882;12.598;2024-02-26T10:45:00;64148.03;;;-137.53
64904;BMP280;51401;48.882;12.598;2024-02-26T10:47:27;64148.03;;;-137.53
64904;BMP280;51401;48.882;12.598;2024-02-26T10:49:53;64148.03;;;-137.53
64904;BMP280;51401;48.882;12.598;2024-02-26T10:52:19;64148.03;;;-137.53
64904;BMP280;51401;48.882;12.598;2024-02-26T10:54:47;64148.03;;;-137.53
64904;BMP280;51401;48.882;12.598;2024-02-26T10:57:13;64152.00;;;-137.53
64904;BMP280;51401;48.882;12.598;2024-02-26T10:59:42;64148.03;;;-137.53
64904;BMP280;51401;48.882;12.598;2024-02-26T11:02:09;64148.03;;;-137.53
64904;BMP280;51401;48.882;12.598;2024-02-26T11:04:35;64150.03;;;-137.53
64904;BMP280;51401;48.882;12.598;2024-02-26T11:07:00;64155.97;;;-137.53
64904;BMP280;51401;48.882;12.598;2024-02-26T11:09:27;64152.00;;;-137.53
64904;BMP280;51401;48.882;12.598;2024-02-26T11:11:53;64148.03;;;-137.53
64904;BMP280;51401;48.882;12.598;2024-02-26T11:14:20;64148.03;;;-137.53
64904;BMP280;51401;48.882;12.598;2024-02-26T11:16:47;64150.03;;;-137.53
64904;BMP280;51401;48.882;12.598;2024-02-26T11:19:15;64148.03;;;-137.53
64904;BMP280;51401;48.882;12.598;2024-02-26T11:21:41;64150.03;;;-137.53
64904;BMP280;51401;48.882;12.598;2024-02-26T11:24:12;64148.03;;;-137.53
64904;BMP280;51401;48.882;12.598;2024-02-26T11:26:42;64152.00;;;-137.53
64904;BMP280;51401;48.882;12.598;2024-02-26T11:29:11;64150.03;;;-137.53
64904;BMP280;51401;48.882;12.598;2024-02-26T11:31:39;64150.03;;;-137.53
64904;BMP280;51401;48.882;12.598;2024-02-26T11:34:07;64148.03;;;-137.53
64904;BMP280;51401;48.882;12.598;2024-02-26T11:36:32;64148.03;;;-137.53
64904;BMP280;51401;48.882;12.598;2024-02-26T11:38:58;64152.00;;;-137.53
64904;BMP280;51401;48.882;12.598;2024-02-26T11:41:23;64148.03;;;-137.53
64904;BMP280;51401;48.882;12.598;2024-02-26T11:44:01;64150.03;;;-137.53
64904;BMP280;51401;48.882;12.598;2024-02-26T11:46:30;64148.03;;;-137.53
64904;BMP280;51401;48.882;12.598;2024-02-26T11:48:58;64150.03;;;-137.53
64904;BMP280;51401;48.882;12.598;2024-02-26T11:51:28;64150.03;;;-137.53
64904;BMP280;51401;48.882;12.598;2024-02-26T11:53:57;64152.00;;;-137.53
64904;BMP280;51401;48.882;12.598;2024-02-26T11:56:23;64152.00;;;-137.53
64904;BMP280;51401;48.882;12.598;2024-02-26T11:58:53;64148.03;;;-137.53
64904;BMP280;51401;48.882;12.598;2024-02-26T12:01:47;64148.03;;;-137.53
64904;BMP280;51401;48.882;12.598;2024-02-26T12:04:13;64152.00;;;-137.53
64904;BMP280;51401;48.882;12.598;2024-02-26T12:06:54;64152.00;;;-137.53
64904;BMP280;51401;48.882;12.598;2024-02-26T12:09:40;64152.00;;;-137.53
64904;BMP280;51401;48.882;12.598;2024-02-26T12:12:10;64152.00;;;-137.53
64904;BMP280;51401;48.882;12.598;2024-02-26T12:14:40;64152.00;;;-137.53
64904;BMP280;51401;48.882;12.598;2024-02-26T12:17:07;64152.00;;;-137.53
64904;BMP280;51401;48.882;12.598;2024-02-26T12:19:35;64148.03;;;-137.53
64904;BMP280;51401;48.882;12.598;2024-02-26T12:22:00;64148.03;;;-137.53
64904;BMP280;51401;48.882;12.598;2024-02-26T12:24:25;64148.03;;;-137.53
64904;BMP280;51401;48.882;12.598;2024-02-26T12:26:51;64146.03;;;-137.53
64904;BMP280;51401;48.882;12.598;2024-02-26T12:29:16;64146.03;;;-137.53
64904;BMP280;51401;48.882;12.598;2024-02-26T12:31:42;64148.03;;;-137.53
64904;BMP280;51401;48.882;12.598;2024-02-26T12:34:07;64148.03;;;-137.53
64904;BMP280;51401;48.882;12.598;2024-02-26T12:36:35;64144.06;;;-137.53
64904;BMP280;51401;48.882;12.598;2024-02-26T12:39:02;64144.06;;;-137.53
64904;BMP280;51401;48.882;12.598;2024-02-26T12:41:27;64146.03;;;-137.53
64904;BMP280;51401;48.882;12.598;2024-02-26T12:43:53;64144.06;;;-137.53
64904;BMP280;51401;48.882;12.598;2024-02-26T12:46:18;64148.03;;;-137.53
64904;BMP280;51401;48.882;12.598;2024-02-26T12:48:43;64146.03;;;-137.53
64904;BMP280;51401;48.882;12.598;2024-02-26T12:51:11;64146.03;;;-137.53
64904;BMP280;51401;48.882;12.598;2024-02-26T12:53:38;64144.06;;;-137.53
64904;BMP280;51401;48.882;12.598;2024-02-26T12:56:04;64144.06;;;-137.53
64904;BMP280;51401;48.882;12.598;2024-02-26T12:58:31;64144.06;;;-137.53
64904;BMP280;51401;48.882;12.598;2024-02-26T13:00:57;64140.09;;;-137.53
64904;BMP280;51401;48.882;12.598;2024-02-26T13:03:22;64144.06;;;-137.53
64904;BMP280;51401;48.882;12.598;2024-02-26T13:05:48;64142.06;;;-137.53
64904;BMP280;51401;48.882;12.598;2024-02-26T13:08:21;64140.09;;;-137.53
64904;BMP280;51401;48.882;12.598;2024-02-26T13:10:47;64148.03;;;-137.53
64904;BMP280;51401;48.882;12.598;2024-02-26T13:13:14;64144.06;;;-137.53
64904;BMP280;51401;48.882;12.598;2024-02-26T13:15:41;64144.06;;;-137.53
64904;BMP280;51401;48.882;12.598;2024-02-26T13:18:14;64144.06;;;-137.53
64904;BMP280;51401;48.882;12.598;2024-02-26T13:20:40;64146.03;;;-137.53
64904;BMP280;51401;48.882;12.598;2024-02-26T13:23:06;64144.06;;;-137.53
64904;BMP280;51401;48.882;12.598;2024-02-26T13:25:33;64144.06;;;-137.53